createdAt,value
2018-12-06T00:00:49.377Z,9.88
2018-12-06T00:03:16.905Z,6.65
2018-12-06T00:05:44.453Z,8.58
2018-12-06T00:08:17.408Z,6.80
2018-12-06T00:10:45.037Z,5.92
2018-12-06T00:13:12.605Z,5.00
2018-12-06T00:15:40.150Z,4.60
2018-12-06T00:18:07.762Z,4.25
2018-12-06T00:20:35.306Z,6.67
2018-12-06T00:23:02.838Z,4.10
2018-12-06T00:25:30.399Z,6.33
2018-12-06T00:27:57.930Z,8.38
2018-12-06T00:30:34.240Z,2.85
2018-12-06T00:33:02.162Z,4.15
2018-12-06T00:35:29.712Z,3.00
2018-12-06T00:37:57.282Z,2.45
2018-12-06T00:40:24.872Z,5.35
2018-12-06T00:42:52.407Z,8.33
2018-12-06T00:45:20.034Z,4.87
2018-12-06T00:47:47.607Z,2.90
2018-12-06T00:50:15.137Z,4.15
2018-12-06T00:52:42.721Z,2.62
2018-12-06T00:55:10.359Z,2.87
2018-12-06T00:57:37.908Z,2.65
2018-12-06T01:00:07.430Z,5.12
2018-12-06T01:02:34.977Z,2.17
2018-12-06T01:05:02.587Z,2.87
2018-12-06T01:07:30.130Z,5.45
2018-12-06T01:09:57.702Z,3.52
2018-12-06T01:12:25.335Z,2.25
2018-12-06T01:14:52.907Z,2.90
2018-12-06T01:17:20.459Z,3.72
2018-12-06T01:19:47.991Z,1.27
2018-12-06T01:22:15.535Z,1.52
2018-12-06T01:24:43.068Z,1.20
2018-12-06T01:27:10.615Z,3.50
2018-12-06T01:29:38.145Z,3.00
2018-12-06T01:32:05.697Z,1.60
2018-12-06T01:34:33.230Z,3.45
2018-12-06T01:37:00.783Z,10.78
2018-12-06T01:39:28.309Z,3.22
2018-12-06T01:41:55.854Z,1.00
2018-12-06T01:44:23.382Z,2.87
2018-12-06T01:46:50.926Z,4.60
2018-12-06T01:49:18.489Z,2.20
2018-12-06T01:51:46.037Z,2.98
2018-12-06T01:54:13.571Z,2.42
2018-12-06T01:56:41.124Z,3.85
2018-12-06T01:59:08.731Z,3.65
2018-12-06T02:01:36.322Z,3.00
2018-12-06T02:04:03.887Z,2.87
2018-12-06T02:06:31.519Z,3.52
2018-12-06T02:08:59.050Z,2.60
2018-12-06T02:11:26.634Z,1.50
2018-12-06T02:13:54.167Z,2.80
2018-12-06T02:16:21.761Z,7.83
2018-12-06T02:18:49.286Z,6.87
2018-12-06T02:21:16.830Z,4.22
2018-12-06T02:23:44.353Z,7.35
2018-12-06T02:26:11.939Z,4.15
2018-12-06T02:28:39.462Z,4.55
2018-12-06T02:31:07.055Z,5.62
2018-12-06T02:33:34.602Z,5.20
2018-12-06T02:36:02.138Z,5.50
2018-12-06T02:38:29.728Z,5.58
2018-12-06T02:40:57.263Z,3.98
2018-12-06T02:43:24.853Z,4.75
2018-12-06T02:45:52.401Z,3.83
2018-12-06T02:48:19.965Z,3.37
2018-12-06T02:50:47.516Z,4.15
2018-12-06T02:53:15.105Z,2.20
2018-12-06T02:55:42.630Z,3.15
2018-12-06T02:58:10.180Z,2.55
2018-12-06T03:00:37.705Z,4.65
2018-12-06T03:03:05.286Z,3.58
2018-12-06T03:05:32.827Z,3.67
2018-12-06T03:08:00.369Z,4.45
2018-12-06T03:10:27.935Z,5.30
2018-12-06T03:12:55.485Z,5.33
2018-12-06T03:15:23.066Z,4.70
2018-12-06T03:17:50.618Z,3.90
2018-12-06T03:20:18.149Z,8.15
2018-12-06T03:22:45.738Z,7.45
2018-12-06T03:25:13.266Z,4.30
2018-12-06T03:27:40.814Z,6.28
2018-12-06T03:30:08.382Z,5.70
2018-12-06T03:32:35.976Z,11.22
2018-12-06T03:35:03.670Z,13.45
2018-12-06T03:37:31.221Z,15.65
2018-12-06T03:39:58.759Z,15.72
2018-12-06T03:42:26.318Z,15.83
2018-12-06T03:44:53.876Z,11.75
2018-12-06T03:47:21.421Z,18.62
2018-12-06T03:49:48.951Z,11.60
2018-12-06T03:52:16.503Z,20.68
2018-12-06T03:54:44.033Z,15.18
2018-12-06T03:57:11.587Z,22.87
2018-12-06T03:59:39.123Z,21.37
2018-12-06T04:02:06.667Z,12.93
2018-12-06T04:04:34.208Z,13.48
2018-12-06T04:07:01.758Z,18.73
2018-12-06T04:09:29.286Z,21.05
2018-12-06T04:11:56.855Z,16.67
2018-12-06T04:14:24.431Z,15.05
2018-12-06T04:16:51.971Z,19.80
2018-12-06T04:19:19.587Z,15.68
2018-12-06T04:21:47.123Z,13.65
2018-12-06T04:24:14.679Z,12.78
2018-12-06T04:26:42.214Z,12.25
2018-12-06T04:29:09.758Z,10.00
2018-12-06T04:31:37.291Z,9.55
2018-12-06T04:34:04.915Z,7.10
2018-12-06T04:36:32.492Z,7.62
2018-12-06T04:39:00.083Z,7.28
2018-12-06T04:41:27.605Z,5.20
2018-12-06T04:43:55.198Z,6.80
2018-12-06T04:46:22.727Z,5.12
2018-12-06T04:48:50.427Z,7.00
2018-12-06T04:51:17.964Z,3.98
2018-12-06T04:53:45.549Z,4.72
2018-12-06T04:56:13.082Z,4.45
2018-12-06T04:58:40.631Z,4.70
2018-12-06T05:01:08.164Z,3.37
2018-12-06T05:03:35.772Z,10.93
2018-12-06T05:06:03.298Z,1.75
2018-12-06T05:08:30.850Z,2.58
2018-12-06T05:10:58.377Z,5.15
2018-12-06T05:13:25.922Z,8.50
2018-12-06T05:15:53.603Z,7.92
2018-12-06T05:18:21.150Z,3.20
2018-12-06T05:20:48.694Z,5.40
2018-12-06T05:23:16.284Z,3.77
2018-12-06T05:25:43.814Z,1.95
2018-12-06T05:28:11.358Z,7.30
2018-12-06T05:30:38.895Z,9.53
2018-12-06T05:33:06.447Z,7.67
2018-12-06T05:35:34.023Z,4.45
2018-12-06T05:38:01.574Z,3.95
2018-12-06T05:40:29.228Z,2.45
2018-12-06T05:42:57.794Z,5.08
2018-12-06T05:45:25.376Z,3.98
2018-12-06T05:47:52.926Z,5.28
2018-12-06T05:50:20.514Z,3.02
2018-12-06T05:52:48.059Z,1.98
2018-12-06T05:55:15.630Z,3.83
2018-12-06T05:57:43.194Z,10.75
2018-12-06T06:00:10.718Z,5.55
2018-12-06T06:02:38.245Z,3.80
2018-12-06T06:05:06.078Z,2.80
2018-12-06T06:07:33.602Z,6.30
2018-12-06T06:10:01.146Z,2.27
2018-12-06T06:12:28.677Z,5.50
2018-12-06T06:14:56.222Z,5.25
2018-12-06T06:17:23.751Z,7.85
2018-12-06T06:19:51.299Z,4.42
2018-12-06T06:22:18.826Z,5.90
2018-12-06T06:24:46.377Z,6.20
2018-12-06T06:27:13.907Z,2.40
2018-12-06T06:29:41.456Z,19.55
2018-12-06T06:32:08.992Z,5.90
2018-12-06T06:34:36.551Z,3.92
2018-12-06T06:37:04.086Z,10.78
2018-12-06T06:39:31.659Z,26.62
2018-12-06T06:41:59.234Z,32.20
2018-12-06T06:44:26.781Z,23.40
2018-12-06T06:46:54.305Z,22.22
2018-12-06T06:49:21.910Z,21.70
2018-12-06T06:51:49.520Z,19.92
2018-12-06T06:54:17.082Z,20.60
2018-12-06T06:56:44.658Z,19.65
2018-12-06T06:59:12.235Z,17.57
2018-12-06T07:01:39.768Z,19.80
2018-12-06T07:04:07.319Z,17.90
2018-12-06T07:06:34.952Z,10.65
2018-12-06T07:09:02.610Z,6.90
2018-12-06T07:11:30.195Z,7.05
2018-12-06T07:13:57.767Z,8.85
2018-12-06T07:16:27.512Z,7.45
2018-12-06T07:18:55.135Z,11.22
2018-12-06T07:21:22.666Z,16.70
2018-12-06T07:23:50.262Z,10.95
2018-12-06T07:26:17.851Z,9.03
2018-12-06T07:28:45.442Z,16.23
2018-12-06T07:31:12.976Z,7.72
2018-12-06T07:33:40.570Z,10.45
2018-12-06T07:36:08.106Z,11.65
2018-12-06T07:38:35.749Z,17.30
2018-12-06T07:41:03.323Z,13.20
2018-12-06T07:43:30.890Z,10.48
2018-12-06T07:46:14.115Z,13.75
2018-12-06T07:48:41.665Z,11.15
2018-12-06T07:51:09.194Z,8.18
2018-12-06T07:53:36.742Z,6.62
2018-12-06T07:56:04.441Z,12.37
2018-12-06T07:58:32.097Z,7.10
2018-12-06T08:00:59.667Z,7.75
2018-12-06T08:03:27.243Z,6.40
2018-12-06T08:05:54.814Z,9.83
2018-12-06T08:08:22.482Z,9.60
2018-12-06T08:10:50.058Z,8.68
2018-12-06T08:13:17.581Z,8.48
2018-12-06T08:15:45.142Z,8.85
2018-12-06T08:18:12.666Z,9.40
2018-12-06T08:20:40.220Z,6.33
2018-12-06T08:23:07.818Z,9.38
2018-12-06T08:25:35.390Z,13.72
2018-12-06T08:28:02.962Z,7.97
2018-12-06T08:30:30.554Z,11.65
2018-12-06T08:32:58.125Z,8.88
2018-12-06T08:35:25.686Z,6.28
2018-12-06T08:37:53.354Z,8.38
2018-12-06T08:40:20.902Z,7.80
2018-12-06T08:42:48.430Z,6.83
2018-12-06T08:45:16.076Z,5.65
2018-12-06T08:47:43.818Z,7.83
2018-12-06T08:50:11.522Z,4.90
2018-12-06T08:52:39.102Z,7.33
2018-12-06T08:55:06.779Z,6.37
2018-12-06T08:57:34.302Z,8.58
2018-12-06T09:00:01.926Z,9.18
2018-12-06T09:02:29.661Z,9.25
2018-12-06T09:04:57.275Z,9.28
2018-12-06T09:07:24.890Z,6.33
2018-12-06T09:09:52.522Z,9.53
2018-12-06T09:12:20.050Z,8.28
2018-12-06T09:14:47.658Z,8.98
2018-12-06T09:17:15.230Z,10.05
2018-12-06T09:19:42.770Z,6.47
2018-12-06T09:22:10.437Z,15.80
2018-12-06T09:24:38.066Z,11.97
2018-12-06T09:27:05.606Z,11.50
2018-12-06T09:29:33.154Z,6.47
2018-12-06T09:32:00.770Z,8.70
2018-12-06T09:34:28.342Z,10.20
2018-12-06T09:36:56.013Z,6.60
2018-12-06T09:39:23.595Z,9.33
2018-12-06T09:41:51.166Z,5.50
2018-12-06T09:44:18.702Z,7.90
2018-12-06T09:46:46.318Z,13.88
2018-12-06T09:49:13.877Z,9.90
2018-12-06T09:51:41.458Z,8.93
2018-12-06T09:54:08.990Z,10.55
2018-12-06T09:56:36.589Z,11.50
2018-12-06T09:59:04.339Z,12.05
2018-12-06T10:01:31.949Z,8.35
2018-12-06T10:03:59.522Z,17.02
2018-12-06T10:06:27.094Z,10.43
2018-12-06T10:08:54.663Z,8.13
2018-12-06T10:11:22.236Z,6.65
2018-12-06T10:13:49.814Z,11.48
2018-12-06T10:16:17.480Z,6.15
2018-12-06T10:18:45.154Z,8.85
2018-12-06T10:21:12.726Z,5.12
2018-12-06T10:23:40.298Z,10.10
2018-12-06T10:26:07.875Z,4.47
2018-12-06T10:28:35.442Z,6.00
2018-12-06T10:31:02.995Z,5.15
2018-12-06T10:33:30.595Z,6.85
2018-12-06T10:35:58.138Z,5.28
2018-12-06T10:38:25.739Z,5.72
2018-12-06T10:40:53.406Z,6.92
2018-12-06T10:43:20.982Z,5.67
2018-12-06T10:45:48.615Z,5.37
2018-12-06T10:48:16.147Z,6.33
2018-12-06T10:50:43.798Z,5.10
2018-12-06T10:53:11.369Z,6.67
2018-12-06T10:55:38.950Z,4.47
2018-12-06T10:58:06.514Z,3.85
2018-12-06T11:07:04.723Z,7.95
2018-12-06T11:09:32.296Z,6.67
2018-12-06T11:11:59.891Z,3.60
2018-12-06T11:14:27.421Z,10.85
2018-12-06T11:16:54.970Z,6.47
2018-12-06T11:19:22.542Z,5.55
2018-12-06T11:21:50.118Z,5.92
2018-12-06T11:24:17.695Z,3.98
2018-12-06T11:26:45.281Z,4.60
2018-12-06T11:29:12.846Z,7.05
2018-12-06T11:31:40.390Z,4.10
2018-12-06T11:34:07.918Z,8.00
2018-12-06T11:36:35.462Z,8.00
2018-12-06T11:39:04.791Z,7.25
2018-12-06T11:41:32.430Z,6.83
2018-12-06T11:44:00.006Z,3.72
2018-12-06T11:46:27.550Z,7.50
2018-12-06T11:48:55.162Z,5.75
2018-12-06T11:51:22.730Z,3.25
2018-12-06T11:53:50.260Z,5.50
2018-12-06T11:56:17.807Z,5.30
2018-12-06T11:58:45.339Z,4.28
2018-12-06T12:01:12.888Z,5.60
2018-12-06T12:03:40.597Z,4.37
2018-12-06T12:06:08.289Z,4.87
2018-12-06T12:08:35.829Z,14.05
2018-12-06T12:11:03.379Z,3.85
2018-12-06T12:13:30.918Z,7.15
2018-12-06T12:15:58.470Z,9.23
2018-12-06T12:18:26.003Z,9.18
2018-12-06T12:20:53.546Z,6.97
2018-12-06T12:23:21.072Z,8.08
2018-12-06T12:25:48.623Z,8.30
2018-12-06T12:28:16.148Z,7.92
2018-12-06T12:30:43.673Z,7.10
2018-12-06T12:33:11.246Z,7.42
2018-12-06T12:35:38.771Z,5.58
2018-12-06T12:38:06.394Z,6.72
2018-12-06T12:40:33.918Z,6.53
2018-12-06T12:43:01.538Z,7.75
2018-12-06T12:45:29.105Z,8.73
2018-12-06T12:47:57.153Z,15.20
2018-12-06T12:50:24.679Z,7.25
2018-12-06T12:52:52.231Z,10.68
2018-12-06T12:55:19.959Z,9.45
2018-12-06T12:57:47.590Z,8.50
2018-12-06T13:00:15.262Z,10.10
2018-12-06T13:02:42.807Z,7.85
2018-12-06T13:05:10.419Z,8.05
2018-12-06T13:07:37.973Z,16.40
2018-12-06T13:10:05.758Z,6.83
2018-12-06T13:12:33.399Z,11.30
2018-12-06T13:15:00.972Z,11.45
2018-12-06T13:17:28.579Z,8.45
2018-12-06T13:19:56.151Z,7.33
2018-12-06T13:22:23.729Z,10.88
2018-12-06T13:24:51.294Z,8.58
2018-12-06T13:27:18.971Z,8.43
2018-12-06T13:29:46.499Z,9.65
2018-12-06T13:32:14.119Z,11.20
2018-12-06T13:34:41.788Z,8.35
2018-12-06T13:37:09.331Z,7.30
2018-12-06T13:39:36.937Z,9.65
2018-12-06T13:42:04.578Z,10.20
2018-12-06T13:44:32.180Z,8.10
2018-12-06T13:46:59.751Z,8.58
2018-12-06T13:49:27.275Z,8.65
2018-12-06T13:51:54.903Z,8.00
2018-12-06T13:54:26.969Z,9.33
2018-12-06T13:56:52.007Z,7.28
2018-12-06T13:59:19.538Z,9.08
2018-12-06T14:01:47.092Z,8.33
2018-12-06T14:04:14.618Z,7.55
2018-12-06T14:06:42.244Z,8.50
2018-12-06T14:09:09.770Z,8.28
2018-12-06T14:11:37.423Z,8.23
2018-12-06T14:14:05.001Z,14.07
2018-12-06T14:16:32.575Z,11.00
2018-12-06T14:19:00.167Z,7.62
2018-12-06T14:21:27.710Z,8.08
2018-12-06T14:23:55.287Z,9.78
2018-12-06T14:26:22.855Z,9.13
2018-12-06T14:28:50.435Z,8.88
2018-12-06T14:31:18.107Z,13.62
2018-12-06T14:33:45.655Z,13.58
2018-12-06T14:36:13.183Z,9.45
2018-12-06T14:38:40.818Z,10.55
2018-12-06T14:41:08.342Z,12.37
2018-12-06T14:43:35.894Z,9.80
2018-12-06T14:46:03.466Z,11.00
2018-12-06T14:48:31.150Z,12.75
2018-12-06T14:50:58.782Z,12.85
2018-12-06T14:53:26.361Z,10.98
2018-12-06T14:55:53.896Z,11.73
2018-12-06T14:58:21.519Z,14.25
2018-12-06T15:00:49.190Z,10.72
2018-12-06T15:03:16.750Z,9.03
2018-12-06T15:05:44.283Z,11.45
2018-12-06T15:08:11.846Z,14.43
2018-12-06T15:10:39.374Z,14.70
2018-12-06T15:13:06.966Z,14.80
2018-12-06T15:15:34.680Z,12.70
2018-12-06T15:18:02.230Z,15.30
2018-12-06T15:20:29.768Z,14.63
2018-12-06T15:22:57.328Z,18.50
2018-12-06T15:25:24.903Z,17.00
2018-12-06T15:27:52.803Z,16.45
2018-12-06T15:30:20.458Z,14.07
2018-12-06T15:32:48.043Z,11.00
2018-12-06T15:35:15.841Z,14.98
2018-12-06T15:37:43.497Z,15.35
2018-12-06T15:40:11.022Z,11.93
2018-12-06T15:42:38.566Z,19.00
2018-12-06T15:45:06.321Z,14.58
2018-12-06T15:47:33.870Z,14.90
2018-12-06T15:50:01.408Z,11.55
2018-12-06T15:52:29.009Z,12.20
2018-12-06T15:54:56.582Z,12.05
2018-12-06T15:57:24.323Z,11.33
2018-12-06T15:59:51.854Z,9.50
2018-12-06T16:02:19.430Z,11.30
2018-12-06T16:04:47.083Z,14.13
2018-12-06T16:07:14.616Z,11.43
2018-12-06T16:09:42.206Z,15.80
2018-12-06T16:12:09.735Z,10.93
2018-12-06T16:14:37.298Z,13.40
2018-12-06T16:17:04.959Z,13.15
2018-12-06T16:19:32.678Z,14.53
2018-12-06T16:22:00.290Z,14.80
2018-12-06T16:24:27.966Z,10.90
2018-12-06T16:26:55.542Z,14.78
2018-12-06T16:29:23.089Z,17.35
2018-12-06T16:31:50.689Z,15.65
2018-12-06T16:34:18.251Z,13.85
2018-12-06T16:36:45.783Z,14.58
2018-12-06T16:39:13.339Z,19.65
2018-12-06T16:41:40.871Z,20.02
2018-12-06T16:44:08.466Z,18.10
2018-12-06T16:46:36.115Z,17.50
2018-12-06T16:49:10.163Z,17.37
2018-12-06T16:51:33.518Z,20.00
2018-12-06T16:54:01.110Z,18.20
2018-12-06T16:56:28.646Z,16.10
2018-12-06T16:58:56.246Z,19.07
2018-12-06T17:01:23.774Z,24.70
2018-12-06T17:03:51.366Z,22.10
2018-12-06T17:06:18.919Z,21.42
2018-12-06T17:08:46.476Z,19.25
2018-12-06T17:11:14.002Z,16.55
2018-12-06T17:13:41.573Z,15.98
2018-12-06T17:16:09.133Z,14.83
2018-12-06T17:18:36.678Z,12.63
2018-12-06T17:21:04.242Z,16.67
2018-12-06T17:23:31.786Z,13.70
2018-12-06T17:25:59.318Z,27.75
2018-12-06T17:28:26.871Z,22.52
2018-12-06T17:30:54.442Z,22.67
2018-12-06T17:33:21.995Z,17.35
2018-12-06T17:35:49.616Z,17.35
2018-12-06T17:38:17.163Z,16.65
2018-12-06T17:40:44.828Z,14.75
2018-12-06T17:43:12.441Z,18.65
2018-12-06T17:45:40.003Z,17.42
2018-12-06T17:48:07.591Z,14.70
2018-12-06T17:50:35.259Z,15.23
2018-12-06T17:53:02.826Z,14.80
2018-12-06T17:55:30.504Z,15.45
2018-12-06T17:57:58.480Z,19.00
2018-12-06T18:00:26.041Z,13.43
2018-12-06T18:02:53.650Z,17.20
2018-12-06T18:05:21.295Z,16.97
2018-12-06T18:07:48.832Z,18.32
2018-12-06T18:10:16.422Z,19.42
2018-12-06T18:12:44.029Z,23.47
2018-12-06T18:15:11.598Z,18.75
2018-12-06T18:17:40.465Z,14.95
2018-12-06T18:20:08.613Z,16.37
2018-12-06T18:22:36.142Z,18.17
2018-12-06T18:25:04.483Z,15.40
2018-12-06T18:27:32.534Z,14.03
2018-12-06T18:30:00.102Z,14.40
2018-12-06T18:32:27.676Z,12.88
2018-12-06T18:34:55.248Z,15.28
2018-12-06T18:37:22.774Z,14.53
2018-12-06T18:39:50.453Z,11.75
2018-12-06T18:42:18.013Z,10.95
2018-12-06T18:44:46.552Z,13.62
2018-12-06T18:47:14.300Z,10.68
2018-12-06T18:49:41.902Z,10.35
2018-12-06T18:52:09.470Z,12.20
2018-12-06T18:54:37.054Z,10.18
2018-12-06T18:57:04.630Z,11.12
2018-12-06T18:59:32.374Z,11.60
2018-12-06T19:01:59.985Z,9.43
2018-12-06T19:04:27.547Z,12.85
2018-12-06T19:06:55.188Z,8.80
2018-12-06T19:09:22.867Z,14.45
2018-12-06T19:11:50.538Z,8.23
2018-12-06T19:14:21.921Z,14.28
2018-12-06T19:16:47.763Z,10.58
2018-12-06T19:19:15.317Z,11.45
2018-12-06T19:21:42.891Z,17.85
2018-12-06T19:24:10.479Z,20.80
2018-12-06T19:26:38.015Z,11.73
2018-12-06T19:29:05.628Z,13.20
2018-12-06T19:31:33.202Z,10.50
2018-12-06T19:34:00.744Z,8.75
2018-12-06T19:36:28.302Z,10.72
2018-12-06T19:38:55.909Z,10.40
2018-12-06T19:41:23.458Z,10.35
2018-12-06T19:43:50.993Z,11.70
2018-12-06T19:46:18.584Z,10.05
2018-12-06T19:48:46.202Z,12.40
2018-12-06T19:51:13.875Z,13.13
2018-12-06T19:53:41.402Z,11.83
2018-12-06T19:56:09.158Z,11.05
2018-12-06T19:58:36.801Z,11.30
2018-12-06T20:01:04.686Z,11.95
2018-12-06T20:03:32.321Z,11.45
2018-12-06T20:05:59.959Z,11.83
2018-12-06T20:08:27.673Z,13.03
2018-12-06T20:10:55.276Z,9.68
2018-12-06T20:13:22.802Z,11.65
2018-12-06T20:15:55.042Z,15.75
2018-12-06T20:18:22.674Z,11.05
2018-12-06T20:20:50.566Z,9.95
2018-12-06T20:23:18.433Z,16.30
2018-12-06T20:25:46.618Z,12.03
2018-12-06T20:28:14.187Z,18.02
2018-12-06T20:30:41.865Z,12.82
2018-12-06T20:33:09.390Z,11.08
2018-12-06T20:35:37.055Z,10.00
2018-12-06T20:38:04.630Z,8.83
2018-12-06T20:40:32.191Z,11.88
2018-12-06T20:42:59.868Z,10.05
2018-12-06T20:45:27.431Z,12.50
2018-12-06T20:47:55.012Z,11.05
2018-12-06T20:50:22.681Z,15.50
2018-12-06T20:52:50.258Z,12.75
2018-12-06T20:55:17.825Z,15.00
2018-12-06T20:57:45.363Z,14.10
2018-12-06T21:00:13.283Z,14.53
2018-12-06T21:02:40.854Z,13.35
2018-12-06T21:05:08.422Z,15.53
2018-12-06T21:07:35.954Z,15.58
2018-12-06T21:10:04.186Z,15.48
2018-12-06T21:12:31.714Z,16.02
2018-12-06T21:14:59.271Z,12.15
2018-12-06T21:17:26.826Z,14.60
2018-12-06T21:19:54.394Z,18.70
2018-12-06T21:22:22.041Z,13.93
2018-12-06T21:24:49.621Z,16.97
2018-12-06T21:27:17.258Z,15.08
2018-12-06T21:29:44.799Z,17.20
2018-12-06T21:32:12.439Z,14.15
2018-12-06T21:34:39.979Z,19.20
2018-12-06T21:37:07.582Z,18.42
2018-12-06T21:39:35.109Z,18.23
2018-12-06T21:42:02.702Z,18.90
2018-12-06T21:44:30.310Z,19.20
2018-12-06T21:46:57.862Z,26.23
2018-12-06T21:49:25.445Z,19.05
2018-12-06T21:51:53.002Z,20.05
2018-12-06T21:54:20.586Z,20.43
2018-12-06T21:56:48.150Z,16.80
2018-12-06T21:59:15.730Z,25.30
2018-12-06T22:01:43.310Z,20.30
2018-12-06T22:04:10.989Z,18.80
2018-12-06T22:06:38.541Z,19.52
2018-12-06T22:09:06.539Z,22.45
2018-12-06T22:11:34.134Z,23.55
2018-12-06T22:14:01.675Z,22.80
2018-12-06T22:16:29.345Z,21.00
2018-12-06T22:18:56.877Z,26.25
2018-12-06T22:21:24.481Z,24.47
2018-12-06T22:23:52.079Z,20.40
2018-12-06T22:26:19.722Z,26.23
2018-12-06T22:28:47.322Z,28.15
2018-12-06T22:31:14.894Z,23.15
2018-12-06T22:33:42.462Z,22.82
2018-12-06T22:36:10.135Z,22.70
2018-12-06T22:38:37.662Z,19.67
2018-12-06T22:41:05.288Z,25.65
2018-12-06T22:43:33.056Z,17.30
2018-12-06T22:46:01.151Z,23.80
2018-12-06T22:48:28.687Z,24.32
2018-12-06T22:50:56.400Z,19.27
2018-12-06T22:53:24.071Z,18.98
2018-12-06T22:55:51.669Z,21.27
2018-12-06T22:58:19.314Z,24.32
2018-12-06T23:00:50.659Z,18.55
2018-12-06T23:03:18.193Z,22.52
2018-12-06T23:05:45.770Z,19.17
2018-12-06T23:08:13.298Z,18.50
2018-12-06T23:10:40.835Z,21.42
2018-12-06T23:13:08.440Z,19.23
2018-12-06T23:15:35.990Z,18.87
2018-12-06T23:18:03.634Z,18.07
2018-12-06T23:20:31.168Z,21.27
2018-12-06T23:22:58.834Z,18.55
2018-12-06T23:25:26.499Z,15.85
2018-12-06T23:27:54.075Z,13.60
2018-12-06T23:30:21.613Z,15.95
2018-12-06T23:32:49.162Z,17.40
2018-12-06T23:35:16.802Z,15.95
2018-12-06T23:37:44.533Z,14.80
2018-12-06T23:40:12.155Z,16.20
2018-12-06T23:42:39.812Z,15.00
2018-12-06T23:45:07.490Z,15.95
2018-12-06T23:47:35.083Z,20.10
2018-12-06T23:50:02.742Z,14.00
2018-12-06T23:52:30.315Z,12.60
2018-12-06T23:54:57.847Z,13.68
2018-12-06T23:57:25.451Z,13.88
2018-12-06T23:59:52.982Z,13.20
